Palu/Mutiara, Indonesia
Current Conditions -  °F | °C
As of 8:00 AM on Saturday 25 Oct 2014 (Local Time) from WAAA Reporting Station
Clear Clear  
Wind Chill: 88°   Ceiling: Unl
Heat Index: 93°   Visibility: 6mi
Dew Point: 70°   Wind: 3mph
Humidity: 55%   Direction: 200°SSW
Pressure: 29.91"   Gusts: NA
Location:  0.68°S, 119.73°E
Report Text: WAAA 250000Z 20003KT 150V280 9000 NSC 31/21 Q1013 NOSIG
Loading
Personal Weather Stations






























Interactive Weather Map
Tropical Storm Tracking
New forecast layout! Learn more

10-Day Weather Forecast

Advertisements
Track Severe Weather on mobile